sensor_id;sensor_type;location;lat;lon;timestamp;P1;durP1;ratioP1;P2;durP2;ratioP2
18082;SDS011;9168;51.194;6.840;2024-03-08T00:01:57;20.63;;;9.27;;
18082;SDS011;9168;51.194;6.840;2024-03-08T00:04:24;23.52;;;10.43;;
18082;SDS011;9168;51.194;6.840;2024-03-08T00:06:51;23.98;;;10.75;;
18082;SDS011;9168;51.194;6.840;2024-03-08T00:09:18;23.80;;;10.30;;
18082;SDS011;9168;51.194;6.840;2024-03-08T00:11:46;22.63;;;10.02;;
18082;SDS011;9168;51.194;6.840;2024-03-08T00:14:14;28.27;;;10.77;;
18082;SDS011;9168;51.194;6.840;2024-03-08T00:16:41;21.88;;;10.52;;
18082;SDS011;9168;51.194;6.840;2024-03-08T00:19:10;21.73;;;10.13;;
18082;SDS011;9168;51.194;6.840;2024-03-08T00:21:37;22.17;;;10.25;;
18082;SDS011;9168;51.194;6.840;2024-03-08T00:24:04;20.27;;;10.02;;
18082;SDS011;9168;51.194;6.840;2024-03-08T00:26:31;22.50;;;9.95;;
18082;SDS011;9168;51.194;6.840;2024-03-08T00:28:58;23.65;;;10.30;;
18082;SDS011;9168;51.194;6.840;2024-03-08T00:31:25;26.20;;;11.40;;
18082;SDS011;9168;51.194;6.840;2024-03-08T00:33:53;21.65;;;10.10;;
18082;SDS011;9168;51.194;6.840;2024-03-08T00:36:21;23.77;;;11.05;;
18082;SDS011;9168;51.194;6.840;2024-03-08T00:38:48;24.10;;;10.63;;
18082;SDS011;9168;51.194;6.840;2024-03-08T00:41:15;23.83;;;10.35;;
18082;SDS011;9168;51.194;6.840;2024-03-08T00:43:42;27.63;;;9.93;;
18082;SDS011;9168;51.194;6.840;2024-03-08T00:46:09;24.88;;;11.15;;
18082;SDS011;9168;51.194;6.840;2024-03-08T00:48:36;22.50;;;10.52;;
18082;SDS011;9168;51.194;6.840;2024-03-08T00:51:03;25.25;;;10.98;;
18082;SDS011;9168;51.194;6.840;2024-03-08T00:53:31;26.92;;;10.20;;
18082;SDS011;9168;51.194;6.840;2024-03-08T00:55:58;28.10;;;10.80;;
18082;SDS011;9168;51.194;6.840;2024-03-08T00:58:25;23.40;;;10.38;;
18082;SDS011;9168;51.194;6.840;2024-03-08T01:00:53;29.45;;;11.40;;
18082;SDS011;9168;51.194;6.840;2024-03-08T01:03:21;27.13;;;11.27;;
18082;SDS011;9168;51.194;6.840;2024-03-08T01:05:48;24.67;;;10.90;;
18082;SDS011;9168;51.194;6.840;2024-03-08T01:08:15;28.95;;;10.52;;
18082;SDS011;9168;51.194;6.840;2024-03-08T01:10:43;28.60;;;11.30;;
18082;SDS011;9168;51.194;6.840;2024-03-08T01:13:11;25.00;;;10.68;;
18082;SDS011;9168;51.194;6.840;2024-03-08T01:15:37;21.85;;;10.10;;
18082;SDS011;9168;51.194;6.840;2024-03-08T01:18:06;24.63;;;11.07;;
18082;SDS011;9168;51.194;6.840;2024-03-08T01:20:32;22.77;;;10.02;;
18082;SDS011;9168;51.194;6.840;2024-03-08T01:22:59;25.00;;;10.27;;
18082;SDS011;9168;51.194;6.840;2024-03-08T01:25:26;26.77;;;11.37;;
18082;SDS011;9168;51.194;6.840;2024-03-08T01:27:54;25.23;;;10.63;;
18082;SDS011;9168;51.194;6.840;2024-03-08T01:30:21;25.52;;;11.38;;
18082;SDS011;9168;51.194;6.840;2024-03-08T01:32:48;25.70;;;10.75;;
18082;SDS011;9168;51.194;6.840;2024-03-08T01:35:15;24.05;;;10.57;;
18082;SDS011;9168;51.194;6.840;2024-03-08T01:37:43;25.97;;;10.87;;
18082;SDS011;9168;51.194;6.840;2024-03-08T01:40:10;22.97;;;11.47;;
18082;SDS011;9168;51.194;6.840;2024-03-08T01:42:37;23.73;;;10.00;;
18082;SDS011;9168;51.194;6.840;2024-03-08T01:45:08;24.57;;;10.70;;
18082;SDS011;9168;51.194;6.840;2024-03-08T01:47:35;24.08;;;10.52;;
18082;SDS011;9168;51.194;6.840;2024-03-08T01:50:03;25.80;;;11.10;;
18082;SDS011;9168;51.194;6.840;2024-03-08T01:52:32;24.42;;;9.30;;
18082;SDS011;9168;51.194;6.840;2024-03-08T01:55:00;25.92;;;11.20;;
18082;SDS011;9168;51.194;6.840;2024-03-08T01:57:28;21.20;;;10.87;;
18082;SDS011;9168;51.194;6.840;2024-03-08T01:59:58;27.08;;;11.13;;
18082;SDS011;9168;51.194;6.840;2024-03-08T02:02:30;25.33;;;11.53;;
18082;SDS011;9168;51.194;6.840;2024-03-08T02:05:00;25.63;;;11.05;;
18082;SDS011;9168;51.194;6.840;2024-03-08T02:07:28;22.30;;;10.30;;
18082;SDS011;9168;51.194;6.840;2024-03-08T02:09:55;28.97;;;11.90;;
18082;SDS011;9168;51.194;6.840;2024-03-08T02:12:22;28.58;;;11.80;;
18082;SDS011;9168;51.194;6.840;2024-03-08T02:14:49;25.02;;;11.43;;
18082;SDS011;9168;51.194;6.840;2024-03-08T02:17:15;27.87;;;11.50;;
18082;SDS011;9168;51.194;6.840;2024-03-08T02:19:44;27.60;;;11.60;;
18082;SDS011;9168;51.194;6.840;2024-03-08T02:22:13;27.23;;;11.30;;
18082;SDS011;9168;51.194;6.840;2024-03-08T02:24:40;25.10;;;11.07;;
18082;SDS011;9168;51.194;6.840;2024-03-08T02:27:06;26.30;;;10.97;;
18082;SDS011;9168;51.194;6.840;2024-03-08T02:29:37;26.73;;;11.98;;
18082;SDS011;9168;51.194;6.840;2024-03-08T02:32:06;27.37;;;11.30;;
18082;SDS011;9168;51.194;6.840;2024-03-08T02:34:33;27.35;;;11.60;;
18082;SDS011;9168;51.194;6.840;2024-03-08T02:36:59;26.40;;;11.00;;
18082;SDS011;9168;51.194;6.840;2024-03-08T02:39:28;29.43;;;11.57;;
18082;SDS011;9168;51.194;6.840;2024-03-08T02:41:57;24.37;;;10.53;;
18082;SDS011;9168;51.194;6.840;2024-03-08T02:44:24;30.40;;;11.80;;
18082;SDS011;9168;51.194;6.840;2024-03-08T02:46:51;26.93;;;11.17;;
18082;SDS011;9168;51.194;6.840;2024-03-08T02:49:20;29.10;;;10.68;;
18082;SDS011;9168;51.194;6.840;2024-03-08T02:51:47;32.37;;;11.83;;
18082;SDS011;9168;51.194;6.840;2024-03-08T02:54:13;28.50;;;11.10;;
18082;SDS011;9168;51.194;6.840;2024-03-08T02:56:44;28.53;;;11.17;;
18082;SDS011;9168;51.194;6.840;2024-03-08T02:59:11;25.65;;;10.93;;
18082;SDS011;9168;51.194;6.840;2024-03-08T03:01:38;27.27;;;10.70;;
18082;SDS011;9168;51.194;6.840;2024-03-08T03:04:06;29.88;;;11.77;;
18082;SDS011;9168;51.194;6.840;2024-03-08T03:06:33;28.93;;;12.07;;
18082;SDS011;9168;51.194;6.840;2024-03-08T03:09:00;28.70;;;12.90;;
18082;SDS011;9168;51.194;6.840;2024-03-08T03:11:27;26.92;;;11.35;;
18082;SDS011;9168;51.194;6.840;2024-03-08T03:13:55;26.88;;;10.95;;
18082;SDS011;9168;51.194;6.840;2024-03-08T03:16:22;27.70;;;11.83;;
18082;SDS011;9168;51.194;6.840;2024-03-08T03:18:49;30.27;;;11.27;;
18082;SDS011;9168;51.194;6.840;2024-03-08T03:21:16;25.37;;;11.27;;
18082;SDS011;9168;51.194;6.840;2024-03-08T03:23:43;31.23;;;10.63;;
18082;SDS011;9168;51.194;6.840;2024-03-08T03:26:10;27.37;;;10.80;;
18082;SDS011;9168;51.194;6.840;2024-03-08T03:28:37;27.80;;;11.87;;
18082;SDS011;9168;51.194;6.840;2024-03-08T03:31:06;29.90;;;11.53;;
18082;SDS011;9168;51.194;6.840;2024-03-08T03:33:35;26.95;;;11.93;;
18082;SDS011;9168;51.194;6.840;2024-03-08T03:36:02;25.87;;;11.77;;
18082;SDS011;9168;51.194;6.840;2024-03-08T03:38:30;28.20;;;10.37;;
18082;SDS011;9168;51.194;6.840;2024-03-08T03:40:57;30.77;;;11.53;;
18082;SDS011;9168;51.194;6.840;2024-03-08T03:43:31;29.80;;;11.73;;
18082;SDS011;9168;51.194;6.840;2024-03-08T03:45:58;22.83;;;10.37;;
18082;SDS011;9168;51.194;6.840;2024-03-08T03:48:26;28.53;;;11.97;;
18082;SDS011;9168;51.194;6.840;2024-03-08T03:50:53;28.73;;;12.05;;
18082;SDS011;9168;51.194;6.840;2024-03-08T03:53:20;28.67;;;11.10;;
18082;SDS011;9168;51.194;6.840;2024-03-08T03:55:47;27.93;;;11.73;;
18082;SDS011;9168;51.194;6.840;2024-03-08T03:58:14;26.20;;;11.83;;
18082;SDS011;9168;51.194;6.840;2024-03-08T04:00:41;28.67;;;11.47;;
18082;SDS011;9168;51.194;6.840;2024-03-08T04:03:08;25.63;;;10.63;;
18082;SDS011;9168;51.194;6.840;2024-03-08T04:05:37;27.35;;;11.82;;
18082;SDS011;9168;51.194;6.840;2024-03-08T04:08:04;33.00;;;12.17;;
18082;SDS011;9168;51.194;6.840;2024-03-08T04:10:31;29.05;;;12.18;;
18082;SDS011;9168;51.194;6.840;2024-03-08T04:12:58;27.30;;;10.90;;
18082;SDS011;9168;51.194;6.840;2024-03-08T04:15:25;28.05;;;11.45;;
18082;SDS011;9168;51.194;6.840;2024-03-08T04:17:52;31.47;;;11.70;;
18082;SDS011;9168;51.194;6.840;2024-03-08T04:20:19;26.10;;;10.95;;
18082;SDS011;9168;51.194;6.840;2024-03-08T04:22:47;28.05;;;11.68;;
18082;SDS011;9168;51.194;6.840;2024-03-08T04:25:15;28.30;;;12.17;;
18082;SDS011;9168;51.194;6.840;2024-03-08T04:27:42;24.63;;;10.53;;
18082;SDS011;9168;51.194;6.840;2024-03-08T04:30:09;27.20;;;11.57;;
18082;SDS011;9168;51.194;6.840;2024-03-08T04:32:37;26.43;;;11.63;;
18082;SDS011;9168;51.194;6.840;2024-03-08T04:35:04;27.85;;;10.70;;
18082;SDS011;9168;51.194;6.840;2024-03-08T04:37:31;31.30;;;11.73;;
18082;SDS011;9168;51.194;6.840;2024-03-08T04:40:00;30.03;;;11.63;;
18082;SDS011;9168;51.194;6.840;2024-03-08T04:42:27;27.17;;;11.67;;
18082;SDS011;9168;51.194;6.840;2024-03-08T04:44:57;29.20;;;11.57;;
18082;SDS011;9168;51.194;6.840;2024-03-08T04:47:24;22.23;;;10.03;;
18082;SDS011;9168;51.194;6.840;2024-03-08T04:49:52;24.73;;;11.17;;
18082;SDS011;9168;51.194;6.840;2024-03-08T04:52:19;27.83;;;11.17;;
18082;SDS011;9168;51.194;6.840;2024-03-08T04:54:47;24.60;;;11.20;;
18082;SDS011;9168;51.194;6.840;2024-03-08T04:57:15;24.10;;;10.90;;
18082;SDS011;9168;51.194;6.840;2024-03-08T04:59:43;30.53;;;11.53;;
18082;SDS011;9168;51.194;6.840;2024-03-08T05:02:10;27.90;;;11.37;;
18082;SDS011;9168;51.194;6.840;2024-03-08T05:04:37;25.93;;;11.37;;
18082;SDS011;9168;51.194;6.840;2024-03-08T05:07:03;29.33;;;12.37;;
18082;SDS011;9168;51.194;6.840;2024-03-08T05:09:30;27.23;;;10.93;;
18082;SDS011;9168;51.194;6.840;2024-03-08T05:11:57;29.90;;;12.23;;
18082;SDS011;9168;51.194;6.840;2024-03-08T05:14:26;30.43;;;12.00;;
18082;SDS011;9168;51.194;6.840;2024-03-08T05:16:53;28.20;;;11.53;;
18082;SDS011;9168;51.194;6.840;2024-03-08T05:19:20;26.00;;;11.23;;
18082;SDS011;9168;51.194;6.840;2024-03-08T05:21:47;25.23;;;11.47;;
18082;SDS011;9168;51.194;6.840;2024-03-08T05:24:15;28.80;;;12.03;;
18082;SDS011;9168;51.194;6.840;2024-03-08T05:26:42;29.40;;;12.87;;
18082;SDS011;9168;51.194;6.840;2024-03-08T05:29:09;25.77;;;11.17;;
18082;SDS011;9168;51.194;6.840;2024-03-08T05:31:43;30.37;;;11.60;;
18082;SDS011;9168;51.194;6.840;2024-03-08T05:34:13;30.77;;;12.37;;
18082;SDS011;9168;51.194;6.840;2024-03-08T05:36:40;34.25;;;12.40;;
18082;SDS011;9168;51.194;6.840;2024-03-08T05:39:09;31.00;;;11.57;;
18082;SDS011;9168;51.194;6.840;2024-03-08T05:41:36;34.17;;;12.40;;
18082;SDS011;9168;51.194;6.840;2024-03-08T05:44:04;26.97;;;11.47;;
18082;SDS011;9168;51.194;6.840;2024-03-08T05:46:31;25.43;;;11.80;;
18082;SDS011;9168;51.194;6.840;2024-03-08T05:48:59;31.75;;;11.77;;
18082;SDS011;9168;51.194;6.840;2024-03-08T05:51:30;31.27;;;12.67;;
18082;SDS011;9168;51.194;6.840;2024-03-08T05:53:59;27.93;;;11.33;;
18082;SDS011;9168;51.194;6.840;2024-03-08T05:56:27;28.75;;;10.68;;
18082;SDS011;9168;51.194;6.840;2024-03-08T05:58:55;27.60;;;11.50;;
18082;SDS011;9168;51.194;6.840;2024-03-08T06:01:22;32.20;;;11.07;;
18082;SDS011;9168;51.194;6.840;2024-03-08T06:03:48;27.83;;;12.43;;
18082;SDS011;9168;51.194;6.840;2024-03-08T06:06:17;32.30;;;11.23;;
18082;SDS011;9168;51.194;6.840;2024-03-08T06:08:44;33.08;;;12.35;;
18082;SDS011;9168;51.194;6.840;2024-03-08T06:11:12;31.93;;;12.43;;
18082;SDS011;9168;51.194;6.840;2024-03-08T06:13:40;40.73;;;13.10;;
18082;SDS011;9168;51.194;6.840;2024-03-08T06:16:07;27.00;;;11.80;;
18082;SDS011;9168;51.194;6.840;2024-03-08T06:18:34;33.77;;;12.50;;
18082;SDS011;9168;51.194;6.840;2024-03-08T06:21:01;28.90;;;11.17;;
18082;SDS011;9168;51.194;6.840;2024-03-08T06:23:31;24.98;;;11.52;;
18082;SDS011;9168;51.194;6.840;2024-03-08T06:25:58;29.67;;;12.10;;
18082;SDS011;9168;51.194;6.840;2024-03-08T06:28:26;30.70;;;12.13;;
18082;SDS011;9168;51.194;6.840;2024-03-08T06:30:52;27.45;;;11.88;;
18082;SDS011;9168;51.194;6.840;2024-03-08T06:33:19;31.27;;;12.43;;
18082;SDS011;9168;51.194;6.840;2024-03-08T06:35:46;24.58;;;11.35;;
18082;SDS011;9168;51.194;6.840;2024-03-08T06:38:16;34.17;;;12.80;;
18082;SDS011;9168;51.194;6.840;2024-03-08T06:40:45;33.30;;;13.10;;
18082;SDS011;9168;51.194;6.840;2024-03-08T06:43:13;29.33;;;12.10;;
18082;SDS011;9168;51.194;6.840;2024-03-08T06:45:41;27.60;;;11.55;;
18082;SDS011;9168;51.194;6.840;2024-03-08T06:48:13;30.15;;;11.85;;
18082;SDS011;9168;51.194;6.840;2024-03-08T06:50:40;27.67;;;11.02;;
18082;SDS011;9168;51.194;6.840;2024-03-08T06:53:07;36.70;;;12.90;;
18082;SDS011;9168;51.194;6.840;2024-03-08T06:55:34;29.92;;;11.63;;
18082;SDS011;9168;51.194;6.840;2024-03-08T06:58:03;30.60;;;13.00;;
18082;SDS011;9168;51.194;6.840;2024-03-08T07:00:30;30.42;;;11.13;;
18082;SDS011;9168;51.194;6.840;2024-03-08T07:02:57;32.03;;;11.40;;
18082;SDS011;9168;51.194;6.840;2024-03-08T07:05:26;26.95;;;11.93;;
18082;SDS011;9168;51.194;6.840;2024-03-08T07:07:53;34.40;;;12.77;;
18082;SDS011;9168;51.194;6.840;2024-03-08T07:10:20;28.90;;;12.05;;
18082;SDS011;9168;51.194;6.840;2024-03-08T07:12:49;28.77;;;11.50;;
18082;SDS011;9168;51.194;6.840;2024-03-08T07:15:18;26.17;;;11.30;;
18082;SDS011;9168;51.194;6.840;2024-03-08T07:17:46;30.23;;;12.35;;
18082;SDS011;9168;51.194;6.840;2024-03-08T07:20:13;29.77;;;12.13;;
18082;SDS011;9168;51.194;6.840;2024-03-08T07:22:43;26.38;;;12.05;;
18082;SDS011;9168;51.194;6.840;2024-03-08T07:25:12;26.63;;;11.25;;
18082;SDS011;9168;51.194;6.840;2024-03-08T07:27:49;26.80;;;11.57;;
18082;SDS011;9168;51.194;6.840;2024-03-08T07:30:19;32.30;;;11.68;;
18082;SDS011;9168;51.194;6.840;2024-03-08T07:33:04;30.05;;;12.02;;
18082;SDS011;9168;51.194;6.840;2024-03-08T07:35:32;29.02;;;11.77;;
18082;SDS011;9168;51.194;6.840;2024-03-08T07:38:01;27.83;;;11.02;;
18082;SDS011;9168;51.194;6.840;2024-03-08T07:40:30;26.63;;;11.20;;
18082;SDS011;9168;51.194;6.840;2024-03-08T07:42:57;24.17;;;10.80;;
18082;SDS011;9168;51.194;6.840;2024-03-08T07:45:26;25.65;;;11.38;;
18082;SDS011;9168;51.194;6.840;2024-03-08T07:47:53;29.17;;;11.10;;
18082;SDS011;9168;51.194;6.840;2024-03-08T07:50:21;29.42;;;12.52;;
18082;SDS011;9168;51.194;6.840;2024-03-08T07:52:48;25.60;;;11.20;;
18082;SDS011;9168;51.194;6.840;2024-03-08T07:55:15;31.33;;;12.07;;
18082;SDS011;9168;51.194;6.840;2024-03-08T07:57:42;25.20;;;10.88;;
18082;SDS011;9168;51.194;6.840;2024-03-08T08:00:09;26.35;;;11.10;;
18082;SDS011;9168;51.194;6.840;2024-03-08T08:02:44;28.53;;;11.77;;
18082;SDS011;9168;51.194;6.840;2024-03-08T08:05:11;28.83;;;11.43;;
18082;SDS011;9168;51.194;6.840;2024-03-08T08:07:38;22.05;;;10.65;;
18082;SDS011;9168;51.194;6.840;2024-03-08T08:10:08;28.70;;;11.35;;
18082;SDS011;9168;51.194;6.840;2024-03-08T08:12:43;26.17;;;10.63;;
18082;SDS011;9168;51.194;6.840;2024-03-08T08:15:10;32.35;;;11.75;;
18082;SDS011;9168;51.194;6.840;2024-03-08T08:17:37;29.45;;;11.75;;
18082;SDS011;9168;51.194;6.840;2024-03-08T08:20:06;25.73;;;10.60;;
18082;SDS011;9168;51.194;6.840;2024-03-08T08:22:34;28.63;;;10.75;;
18082;SDS011;9168;51.194;6.840;2024-03-08T08:25:01;27.02;;;11.02;;
18082;SDS011;9168;51.194;6.840;2024-03-08T08:27:28;26.70;;;10.38;;
18082;SDS011;9168;51.194;6.840;2024-03-08T08:29:55;23.52;;;10.23;;
18082;SDS011;9168;51.194;6.840;2024-03-08T08:32:22;27.63;;;11.25;;
18082;SDS011;9168;51.194;6.840;2024-03-08T08:34:49;21.40;;;9.23;;
18082;SDS011;9168;51.194;6.840;2024-03-08T08:37:18;21.38;;;9.15;;
18082;SDS011;9168;51.194;6.840;2024-03-08T08:39:45;24.85;;;9.63;;
18082;SDS011;9168;51.194;6.840;2024-03-08T08:42:12;24.58;;;9.88;;
18082;SDS011;9168;51.194;6.840;2024-03-08T08:44:38;20.52;;;9.35;;
18082;SDS011;9168;51.194;6.840;2024-03-08T08:47:06;21.80;;;9.20;;
18082;SDS011;9168;51.194;6.840;2024-03-08T08:49:33;24.73;;;9.43;;
18082;SDS011;9168;51.194;6.840;2024-03-08T08:52:00;21.85;;;9.15;;
18082;SDS011;9168;51.194;6.840;2024-03-08T08:54:29;20.35;;;8.93;;
18082;SDS011;9168;51.194;6.840;2024-03-08T08:56:56;18.63;;;8.65;;
18082;SDS011;9168;51.194;6.840;2024-03-08T08:59:23;24.48;;;10.38;;
18082;SDS011;9168;51.194;6.840;2024-03-08T09:01:50;20.13;;;8.80;;
18082;SDS011;9168;51.194;6.840;2024-03-08T09:04:18;22.00;;;8.85;;
18082;SDS011;9168;51.194;6.840;2024-03-08T09:06:46;24.83;;;9.02;;
18082;SDS011;9168;51.194;6.840;2024-03-08T09:09:13;21.83;;;9.23;;
18082;SDS011;9168;51.194;6.840;2024-03-08T09:11:43;23.08;;;9.55;;
18082;SDS011;9168;51.194;6.840;2024-03-08T09:14:11;22.20;;;9.15;;
18082;SDS011;9168;51.194;6.840;2024-03-08T09:16:39;27.02;;;10.18;;
18082;SDS011;9168;51.194;6.840;2024-03-08T09:19:06;23.08;;;9.07;;
18082;SDS011;9168;51.194;6.840;2024-03-08T09:21:35;20.63;;;8.88;;
18082;SDS011;9168;51.194;6.840;2024-03-08T09:24:04;19.95;;;9.70;;
18082;SDS011;9168;51.194;6.840;2024-03-08T09:26:32;21.85;;;9.48;;
18082;SDS011;9168;51.194;6.840;2024-03-08T09:29:01;18.88;;;8.50;;
18082;SDS011;9168;51.194;6.840;2024-03-08T09:31:27;22.55;;;8.85;;
18082;SDS011;9168;51.194;6.840;2024-03-08T09:33:55;25.80;;;9.82;;
18082;SDS011;9168;51.194;6.840;2024-03-08T09:36:22;18.70;;;8.05;;
18082;SDS011;9168;51.194;6.840;2024-03-08T09:38:50;19.38;;;8.50;;
18082;SDS011;9168;51.194;6.840;2024-03-08T09:41:18;16.58;;;7.78;;
18082;SDS011;9168;51.194;6.840;2024-03-08T09:43:45;20.30;;;8.95;;
18082;SDS011;9168;51.194;6.840;2024-03-08T09:46:14;20.85;;;8.43;;
18082;SDS011;9168;51.194;6.840;2024-03-08T09:48:41;20.83;;;9.57;;
18082;SDS011;9168;51.194;6.840;2024-03-08T09:51:08;21.38;;;9.35;;
18082;SDS011;9168;51.194;6.840;2024-03-08T09:53:39;23.25;;;9.38;;
18082;SDS011;9168;51.194;6.840;2024-03-08T09:56:07;22.20;;;9.15;;
18082;SDS011;9168;51.194;6.840;2024-03-08T09:58:34;22.55;;;9.95;;
18082;SDS011;9168;51.194;6.840;2024-03-08T10:01:20;21.38;;;9.32;;
18082;SDS011;9168;51.194;6.840;2024-03-08T10:03:47;21.55;;;9.48;;
18082;SDS011;9168;51.194;6.840;2024-03-08T10:06:15;17.88;;;8.00;;
18082;SDS011;9168;51.194;6.840;2024-03-08T10:08:42;18.67;;;8.00;;
18082;SDS011;9168;51.194;6.840;2024-03-08T10:11:10;23.85;;;9.30;;
18082;SDS011;9168;51.194;6.840;2024-03-08T10:13:37;20.50;;;8.18;;
18082;SDS011;9168;51.194;6.840;2024-03-08T10:16:06;18.08;;;7.63;;
18082;SDS011;9168;51.194;6.840;2024-03-08T10:18:35;20.15;;;8.07;;
18082;SDS011;9168;51.194;6.840;2024-03-08T10:21:02;19.65;;;8.65;;
18082;SDS011;9168;51.194;6.840;2024-03-08T10:23:30;18.70;;;8.32;;
18082;SDS011;9168;51.194;6.840;2024-03-08T10:26:01;16.98;;;7.78;;
18082;SDS011;9168;51.194;6.840;2024-03-08T10:28:36;17.05;;;7.13;;
18082;SDS011;9168;51.194;6.840;2024-03-08T10:31:03;16.42;;;7.50;;
18082;SDS011;9168;51.194;6.840;2024-03-08T10:33:30;16.00;;;8.00;;
18082;SDS011;9168;51.194;6.840;2024-03-08T10:35:59;16.55;;;7.05;;
18082;SDS011;9168;51.194;6.840;2024-03-08T10:38:28;16.40;;;7.78;;
18082;SDS011;9168;51.194;6.840;2024-03-08T10:40:58;15.48;;;7.28;;
18082;SDS011;9168;51.194;6.840;2024-03-08T10:43:26;14.20;;;6.95;;
18082;SDS011;9168;51.194;6.840;2024-03-08T10:46:04;15.65;;;7.68;;
18082;SDS011;9168;51.194;6.840;2024-03-08T10:48:44;16.15;;;7.25;;
18082;SDS011;9168;51.194;6.840;2024-03-08T10:51:14;18.70;;;6.90;;
18082;SDS011;9168;51.194;6.840;2024-03-08T10:53:42;16.48;;;7.13;;
18082;SDS011;9168;51.194;6.840;2024-03-08T10:56:10;14.18;;;7.03;;
18082;SDS011;9168;51.194;6.840;2024-03-08T10:58:39;15.40;;;6.93;;
18082;SDS011;9168;51.194;6.840;2024-03-08T11:01:07;14.88;;;7.22;;
18082;SDS011;9168;51.194;6.840;2024-03-08T11:03:44;14.85;;;6.40;;
18082;SDS011;9168;51.194;6.840;2024-03-08T11:06:15;12.68;;;5.70;;
18082;SDS011;9168;51.194;6.840;2024-03-08T11:08:43;16.08;;;6.93;;
18082;SDS011;9168;51.194;6.840;2024-03-08T11:11:23;13.23;;;6.72;;
18082;SDS011;9168;51.194;6.840;2024-03-08T11:13:55;11.55;;;5.82;;
18082;SDS011;9168;51.194;6.840;2024-03-08T11:16:41;11.02;;;5.60;;
18082;SDS011;9168;51.194;6.840;2024-03-08T11:19:23;12.38;;;6.15;;
18082;SDS011;9168;51.194;6.840;2024-03-08T11:21:58;9.45;;;4.97;;
18082;SDS011;9168;51.194;6.840;2024-03-08T11:24:25;10.77;;;5.03;;
18082;SDS011;9168;51.194;6.840;2024-03-08T11:26:54;12.18;;;6.38;;
18082;SDS011;9168;51.194;6.840;2024-03-08T11:29:32;12.35;;;5.65;;
18082;SDS011;9168;51.194;6.840;2024-03-08T11:32:03;10.27;;;5.13;;
18082;SDS011;9168;51.194;6.840;2024-03-08T11:34:31;10.65;;;5.47;;
18082;SDS011;9168;51.194;6.840;2024-03-08T11:37:00;8.63;;;4.97;;
18082;SDS011;9168;51.194;6.840;2024-03-08T11:39:29;9.18;;;5.07;;
18082;SDS011;9168;51.194;6.840;2024-03-08T11:41:57;11.40;;;5.55;;
18082;SDS011;9168;51.194;6.840;2024-03-08T11:44:26;10.68;;;5.85;;
18082;SDS011;9168;51.194;6.840;2024-03-08T11:46:53;11.27;;;5.25;;
18082;SDS011;9168;51.194;6.840;2024-03-08T11:49:20;10.00;;;5.13;;
18082;SDS011;9168;51.194;6.840;2024-03-08T11:51:50;11.25;;;6.03;;
18082;SDS011;9168;51.194;6.840;2024-03-08T11:54:20;9.07;;;5.20;;
18082;SDS011;9168;51.194;6.840;2024-03-08T11:56:48;10.65;;;5.28;;
18082;SDS011;9168;51.194;6.840;2024-03-08T11:59:18;10.55;;;5.43;;
18082;SDS011;9168;51.194;6.840;2024-03-08T12:01:56;10.57;;;5.28;;
18082;SDS011;9168;51.194;6.840;2024-03-08T12:04:28;10.20;;;5.72;;
18082;SDS011;9168;51.194;6.840;2024-03-08T12:06:56;11.63;;;5.40;;
18082;SDS011;9168;51.194;6.840;2024-03-08T12:09:26;10.02;;;5.50;;
18082;SDS011;9168;51.194;6.840;2024-03-08T12:11:53;11.20;;;5.78;;
18082;SDS011;9168;51.194;6.840;2024-03-08T12:14:20;11.95;;;5.50;;
18082;SDS011;9168;51.194;6.840;2024-03-08T12:16:48;10.73;;;5.30;;
18082;SDS011;9168;51.194;6.840;2024-03-08T12:19:17;8.85;;;5.00;;
18082;SDS011;9168;51.194;6.840;2024-03-08T12:21:44;11.75;;;5.85;;
18082;SDS011;9168;51.194;6.840;2024-03-08T12:24:14;10.75;;;6.05;;
18082;SDS011;9168;51.194;6.840;2024-03-08T12:26:45;9.82;;;5.22;;
18082;SDS011;9168;51.194;6.840;2024-03-08T12:29:14;10.18;;;5.35;;
18082;SDS011;9168;51.194;6.840;2024-03-08T12:31:42;10.48;;;5.60;;
18082;SDS011;9168;51.194;6.840;2024-03-08T12:34:09;11.00;;;5.95;;
18082;SDS011;9168;51.194;6.840;2024-03-08T12:36:43;10.15;;;5.22;;
18082;SDS011;9168;51.194;6.840;2024-03-08T12:39:13;9.35;;;5.18;;
18082;SDS011;9168;51.194;6.840;2024-03-08T12:41:42;10.60;;;5.47;;
18082;SDS011;9168;51.194;6.840;2024-03-08T12:44:11;12.23;;;5.88;;
18082;SDS011;9168;51.194;6.840;2024-03-08T12:46:38;10.93;;;5.95;;
18082;SDS011;9168;51.194;6.840;2024-03-08T12:49:07;12.07;;;6.47;;
18082;SDS011;9168;51.194;6.840;2024-03-08T12:51:35;9.27;;;5.65;;
18082;SDS011;9168;51.194;6.840;2024-03-08T12:54:04;11.30;;;5.60;;
18082;SDS011;9168;51.194;6.840;2024-03-08T12:56:33;11.32;;;6.05;;
18082;SDS011;9168;51.194;6.840;2024-03-08T12:59:02;11.43;;;6.05;;
18082;SDS011;9168;51.194;6.840;2024-03-08T13:01:31;11.43;;;5.63;;
18082;SDS011;9168;51.194;6.840;2024-03-08T13:03:58;10.93;;;5.43;;
18082;SDS011;9168;51.194;6.840;2024-03-08T13:06:27;11.18;;;5.40;;
18082;SDS011;9168;51.194;6.840;2024-03-08T13:08:56;10.48;;;5.38;;
18082;SDS011;9168;51.194;6.840;2024-03-08T13:11:23;11.00;;;5.28;;
18082;SDS011;9168;51.194;6.840;2024-03-08T13:13:51;10.40;;;5.05;;
18082;SDS011;9168;51.194;6.840;2024-03-08T13:16:18;11.23;;;5.57;;
18082;SDS011;9168;51.194;6.840;2024-03-08T13:18:47;11.50;;;5.75;;
18082;SDS011;9168;51.194;6.840;2024-03-08T13:21:14;9.77;;;5.80;;
18082;SDS011;9168;51.194;6.840;2024-03-08T13:23:45;13.23;;;5.97;;
18082;SDS011;9168;51.194;6.840;2024-03-08T13:26:15;17.15;;;6.28;;
18082;SDS011;9168;51.194;6.840;2024-03-08T13:28:42;10.00;;;4.68;;
18082;SDS011;9168;51.194;6.840;2024-03-08T13:31:09;13.05;;;5.70;;
18082;SDS011;9168;51.194;6.840;2024-03-08T13:33:36;12.30;;;6.20;;
18082;SDS011;9168;51.194;6.840;2024-03-08T13:36:06;13.50;;;5.65;;
18082;SDS011;9168;51.194;6.840;2024-03-08T13:38:40;12.32;;;5.95;;
18082;SDS011;9168;51.194;6.840;2024-03-08T13:41:08;11.43;;;5.72;;
18082;SDS011;9168;51.194;6.840;2024-03-08T13:43:36;10.07;;;5.28;;
18082;SDS011;9168;51.194;6.840;2024-03-08T13:46:05;11.25;;;5.53;;
18082;SDS011;9168;51.194;6.840;2024-03-08T13:48:32;13.43;;;6.60;;
18082;SDS011;9168;51.194;6.840;2024-03-08T13:50:59;11.70;;;5.57;;
18082;SDS011;9168;51.194;6.840;2024-03-08T13:53:27;12.15;;;5.82;;
18082;SDS011;9168;51.194;6.840;2024-03-08T13:55:54;12.95;;;5.68;;
18082;SDS011;9168;51.194;6.840;2024-03-08T13:58:21;15.65;;;5.95;;
18082;SDS011;9168;51.194;6.840;2024-03-08T14:00:48;11.45;;;5.70;;
18082;SDS011;9168;51.194;6.840;2024-03-08T14:03:16;10.40;;;5.18;;
18082;SDS011;9168;51.194;6.840;2024-03-08T14:05:43;21.05;;;6.22;;
18082;SDS011;9168;51.194;6.840;2024-03-08T14:08:11;13.70;;;6.07;;
18082;SDS011;9168;51.194;6.840;2024-03-08T14:10:40;11.27;;;5.78;;
18082;SDS011;9168;51.194;6.840;2024-03-08T14:13:07;12.50;;;5.47;;
18082;SDS011;9168;51.194;6.840;2024-03-08T14:15:34;10.45;;;5.28;;
18082;SDS011;9168;51.194;6.840;2024-03-08T14:18:01;14.18;;;6.55;;
18082;SDS011;9168;51.194;6.840;2024-03-08T14:20:31;14.02;;;6.45;;
18082;SDS011;9168;51.194;6.840;2024-03-08T14:22:58;11.38;;;5.22;;
18082;SDS011;9168;51.194;6.840;2024-03-08T14:25:25;10.70;;;5.50;;
18082;SDS011;9168;51.194;6.840;2024-03-08T14:27:56;10.95;;;5.60;;
18082;SDS011;9168;51.194;6.840;2024-03-08T14:30:27;11.50;;;6.10;;
18082;SDS011;9168;51.194;6.840;2024-03-08T14:33:03;11.30;;;5.63;;
18082;SDS011;9168;51.194;6.840;2024-03-08T14:35:32;11.25;;;5.90;;
18082;SDS011;9168;51.194;6.840;2024-03-08T14:38:00;11.02;;;6.05;;
18082;SDS011;9168;51.194;6.840;2024-03-08T14:40:27;10.65;;;5.32;;
18082;SDS011;9168;51.194;6.840;2024-03-08T14:42:56;10.40;;;5.40;;
18082;SDS011;9168;51.194;6.840;2024-03-08T14:45:23;9.82;;;5.72;;
18082;SDS011;9168;51.194;6.840;2024-03-08T14:47:51;13.77;;;6.70;;